createdAt,value
2023-02-03T00:01:41.653Z,100506.84
2023-02-03T00:06:45.367Z,100513.17
2023-02-03T00:11:48.363Z,100507.39
2023-02-03T00:16:51.476Z,100510.47
2023-02-03T00:21:54.374Z,100523.98
2023-02-03T00:26:57.492Z,100522.58
2023-02-03T00:32:00.586Z,100521.65
2023-02-03T00:37:03.801Z,100527.47
2023-02-03T00:42:07.215Z,100533.05
2023-02-03T00:47:10.223Z,100526.02
2023-02-03T00:52:13.236Z,100523.24
2023-02-03T00:57:16.341Z,100524.92
2023-02-03T01:02:19.403Z,100525.08
2023-02-03T01:07:22.658Z,100517.77
2023-02-03T01:12:25.767Z,100510.55
2023-02-03T01:17:28.880Z,100511.45
2023-02-03T01:22:32.048Z,100510.69
2023-02-03T01:27:35.325Z,100504.89
2023-02-03T01:32:38.408Z,100492.73
2023-02-03T01:37:41.414Z,100488.48
2023-02-03T01:42:44.316Z,100482.80
2023-02-03T01:47:54.391Z,100477.66
2023-02-03T01:53:11.017Z,100464.65
2023-02-03T01:58:28.494Z,100452.59
2023-02-03T02:03:46.825Z,100447.71
2023-02-03T02:08:52.070Z,100446.77
2023-02-03T02:14:00.122Z,100440.16
2023-02-03T02:19:21.144Z,100436.63
2023-02-03T02:24:51.996Z,100436.65
2023-02-03T02:30:43.511Z,100420.36
2023-02-03T02:36:06.620Z,100418.27
2023-02-03T02:41:40.040Z,100417.08
2023-02-03T02:46:53.754Z,100418.69
2023-02-03T02:52:00.197Z,100410.80
2023-02-03T02:57:06.466Z,100399.41
2023-02-03T03:02:11.861Z,100388.79
2023-02-03T03:07:24.575Z,100385.08
2023-02-03T03:12:37.912Z,100389.66
2023-02-03T03:17:47.265Z,100392.66
2023-02-03T03:22:56.432Z,100392.01
2023-02-03T03:28:06.040Z,100385.66
2023-02-03T03:33:09.864Z,100387.61
2023-02-03T03:38:22.957Z,100395.56
2023-02-03T03:43:31.233Z,100399.95
2023-02-03T03:49:00.399Z,100403.13
2023-02-03T03:54:10.005Z,100393.33
2023-02-03T03:59:16.965Z,100386.05
2023-02-03T04:04:21.345Z,100370.54
2023-02-03T04:09:25.195Z,100359.33
2023-02-03T04:14:30.556Z,100354.38
2023-02-03T04:19:33.488Z,100349.79
2023-02-03T04:24:36.605Z,100346.15
2023-02-03T04:29:39.501Z,100347.30
2023-02-03T04:34:42.506Z,100340.85
2023-02-03T04:39:45.414Z,100330.38
2023-02-03T04:44:48.826Z,100324.71
2023-02-03T04:49:52.042Z,100322.20
2023-02-03T04:54:55.260Z,100320.13
2023-02-03T04:59:58.162Z,100320.06
2023-02-03T05:05:01.056Z,100309.52
2023-02-03T05:10:04.168Z,100306.39
2023-02-03T05:15:07.644Z,100299.56
2023-02-03T05:20:13.455Z,100282.97
2023-02-03T05:25:16.463Z,100281.13
2023-02-03T05:30:19.579Z,100273.20
2023-02-03T05:35:22.685Z,100260.55
2023-02-03T05:40:44.938Z,100254.66
2023-02-03T05:45:47.914Z,100248.15
2023-02-03T05:50:50.950Z,100236.87
2023-02-03T05:55:54.162Z,100227.59
2023-02-03T06:00:57.167Z,100213.86
2023-02-03T06:06:00.385Z,100206.97
2023-02-03T06:11:03.484Z,100207.55
2023-02-03T06:16:06.799Z,100199.64
2023-02-03T06:21:09.913Z,100199.14
2023-02-03T06:26:13.119Z,100187.27
2023-02-03T06:31:16.351Z,100176.20
2023-02-03T06:36:19.550Z,100164.92
2023-02-03T06:41:27.698Z,100157.19
2023-02-03T06:46:31.099Z,100146.52
2023-02-03T06:51:34.296Z,100135.33
2023-02-03T06:56:37.718Z,100133.77
2023-02-03T07:01:40.765Z,100128.70
2023-02-03T07:06:43.943Z,100111.79
2023-02-03T07:11:47.046Z,100104.98
2023-02-03T07:16:50.185Z,100095.64
2023-02-03T07:21:53.153Z,100082.10
2023-02-03T07:26:56.057Z,100078.73
2023-02-03T07:31:59.169Z,100073.81
2023-02-03T07:37:02.507Z,100067.67
2023-02-03T07:42:05.550Z,100056.42
2023-02-03T07:47:08.616Z,100039.42
2023-02-03T07:52:11.603Z,100032.00
2023-02-03T07:57:14.716Z,100027.50
2023-02-03T08:02:17.823Z,100023.70
2023-02-03T08:07:20.930Z,100005.59
2023-02-03T08:12:24.350Z,99996.89
2023-02-03T08:17:27.353Z,99992.89
2023-02-03T08:22:30.432Z,99979.77
2023-02-03T08:27:33.471Z,99974.43
2023-02-03T08:32:36.494Z,99960.88
2023-02-03T08:37:39.488Z,99944.63
2023-02-03T08:42:42.900Z,99936.96
2023-02-03T08:47:46.003Z,99927.88
2023-02-03T08:52:49.217Z,99916.23
2023-02-03T08:57:52.327Z,99901.56
2023-02-03T09:02:55.540Z,99896.55
2023-02-03T09:07:58.870Z,99891.09
2023-02-03T09:13:01.965Z,99882.06
2023-02-03T09:18:05.256Z,99860.07
2023-02-03T09:23:08.492Z,99840.34
2023-02-03T09:28:11.780Z,99837.09
2023-02-03T09:33:14.906Z,99821.69
2023-02-03T09:38:18.026Z,99814.48
2023-02-03T09:43:33.307Z,99798.03
2023-02-03T09:48:44.168Z,99789.96
2023-02-03T09:53:54.995Z,99768.23
2023-02-03T09:58:58.302Z,99753.63
2023-02-03T10:04:13.608Z,99738.94
2023-02-03T10:09:28.989Z,99730.07
2023-02-03T10:14:48.309Z,99719.94
2023-02-03T10:20:01.627Z,99705.52
2023-02-03T10:25:17.057Z,99685.50
2023-02-03T10:30:21.844Z,99672.61
2023-02-03T10:35:36.969Z,99658.71
2023-02-03T10:40:40.197Z,99640.15
2023-02-03T10:45:43.186Z,99621.27
2023-02-03T10:50:49.362Z,99606.86
2023-02-03T10:56:04.558Z,99579.23
2023-02-03T11:01:07.911Z,99558.09
2023-02-03T11:06:16.733Z,99542.69
2023-02-03T11:11:25.454Z,99530.67
2023-02-03T11:16:37.351Z,99512.98
2023-02-03T11:21:43.961Z,99506.96
2023-02-03T11:26:53.113Z,99495.45
2023-02-03T11:31:59.736Z,99490.48
2023-02-03T11:37:28.316Z,99488.27
2023-02-03T11:42:31.428Z,99471.93
2023-02-03T11:47:35.058Z,99456.44
2023-02-03T11:53:04.469Z,99446.58
2023-02-03T11:58:38.809Z,99430.28
2023-02-03T12:03:58.488Z,99417.13
2023-02-03T12:09:07.548Z,99405.04
2023-02-03T12:14:55.410Z,99395.17
2023-02-03T12:20:06.340Z,99376.23
2023-02-03T12:25:29.176Z,99355.08
2023-02-03T12:30:57.254Z,99346.81
2023-02-03T12:36:09.835Z,99328.56
2023-02-03T12:41:18.842Z,99317.73
2023-02-03T12:46:38.232Z,99306.03
2023-02-03T12:51:41.138Z,99293.46
2023-02-03T12:56:50.286Z,99280.17
2023-02-03T13:01:59.273Z,99267.59
2023-02-03T13:07:09.417Z,99265.30
2023-02-03T13:12:26.651Z,99253.95
2023-02-03T13:17:38.262Z,99251.37
2023-02-03T13:22:41.279Z,99242.06
2023-02-03T13:27:59.677Z,99245.31
2023-02-03T13:33:53.737Z,99236.04
2023-02-03T13:38:59.527Z,99225.15
2023-02-03T13:44:04.027Z,99217.73
2023-02-03T13:49:09.107Z,99211.17
2023-02-03T13:54:33.221Z,99201.67
2023-02-03T13:59:45.212Z,99199.08
2023-02-03T14:04:48.290Z,99193.38
2023-02-03T14:10:12.734Z,99190.09
2023-02-03T14:15:32.959Z,99187.29
2023-02-03T14:20:43.340Z,99185.92
2023-02-03T14:25:51.469Z,99189.84
2023-02-03T14:31:05.809Z,99188.95
2023-02-03T14:36:27.789Z,99181.36
2023-02-03T14:41:33.861Z,99180.83
2023-02-03T14:46:58.477Z,99163.96
2023-02-03T14:52:09.180Z,99160.12
2023-02-03T14:57:36.749Z,99152.17
2023-02-03T15:03:12.022Z,99142.70
2023-02-03T15:08:36.928Z,99137.52
2023-02-03T15:13:39.904Z,99141.96
2023-02-03T15:18:43.155Z,99137.98
2023-02-03T15:23:49.485Z,99140.71
2023-02-03T15:29:04.516Z,99141.73
2023-02-03T15:34:43.258Z,99148.08
2023-02-03T15:40:00.509Z,99154.77
2023-02-03T15:45:23.881Z,99168.33
2023-02-03T15:50:32.328Z,99172.27
2023-02-03T15:55:45.480Z,99175.86
2023-02-03T16:00:52.891Z,99176.55
2023-02-03T16:05:56.216Z,99181.86
2023-02-03T16:10:59.884Z,99203.98
2023-02-03T16:16:40.292Z,99212.05
2023-02-03T16:21:52.516Z,99215.14
2023-02-03T16:26:55.734Z,99232.30
2023-02-03T16:32:18.148Z,99236.59
2023-02-03T16:37:45.869Z,99231.77
2023-02-03T16:43:07.725Z,99235.52
2023-02-03T16:48:31.134Z,99237.08
2023-02-03T16:53:34.529Z,99249.79
2023-02-03T16:58:37.943Z,99254.08
2023-02-03T17:03:41.161Z,99248.59
2023-02-03T17:08:44.158Z,99249.63
2023-02-03T17:13:48.374Z,99255.11
2023-02-03T17:18:52.180Z,99264.02
2023-02-03T17:23:55.494Z,99276.38
2023-02-03T17:29:03.516Z,99268.83
2023-02-03T17:34:06.872Z,99264.20
2023-02-03T17:55:12.443Z,99290.73
2023-02-03T18:00:16.076Z,99296.22
2023-02-03T18:05:19.775Z,99296.40
2023-02-03T18:10:22.876Z,99306.34
2023-02-03T18:15:25.984Z,99316.64
2023-02-03T18:20:29.239Z,99318.70
2023-02-03T18:25:35.472Z,99323.51
2023-02-03T18:30:38.461Z,99333.80
2023-02-03T18:35:41.865Z,99323.33
2023-02-03T18:40:45.042Z,99313.55
2023-02-03T18:45:48.257Z,99323.16
2023-02-03T18:50:51.335Z,99342.55
2023-02-03T18:55:54.336Z,99357.50
2023-02-03T19:00:59.195Z,99356.66
2023-02-03T19:06:09.053Z,99364.67
2023-02-03T19:11:15.357Z,99387.86
2023-02-03T19:16:18.660Z,99394.37
2023-02-03T19:21:21.982Z,99392.81
2023-02-03T19:26:25.203Z,99397.97
2023-02-03T19:31:32.117Z,99400.70
2023-02-03T19:36:35.303Z,99414.41
2023-02-03T19:41:41.073Z,99434.82
2023-02-03T19:46:44.115Z,99464.80
2023-02-03T19:51:47.701Z,99482.82
2023-02-03T19:56:50.864Z,99484.54
2023-02-03T20:01:55.408Z,99494.81
2023-02-03T20:07:00.021Z,99496.01
2023-02-03T20:12:03.010Z,99493.60
2023-02-03T20:17:07.759Z,99503.05
2023-02-03T20:22:10.990Z,99510.77
2023-02-03T20:27:14.172Z,99529.96
2023-02-03T20:32:17.226Z,99540.06
2023-02-03T20:37:20.190Z,99549.13
2023-02-03T20:42:23.093Z,99564.58
2023-02-03T20:47:26.419Z,99571.79
2023-02-03T20:52:29.413Z,99572.84
2023-02-03T20:57:33.147Z,99588.11
2023-02-03T21:02:56.118Z,99607.79
2023-02-03T21:07:59.745Z,99636.42
2023-02-03T21:13:24.661Z,99656.64
2023-02-03T21:18:39.524Z,99674.94
2023-02-03T21:23:47.306Z,99698.92
2023-02-03T21:29:01.573Z,99711.73
2023-02-03T21:34:25.058Z,99724.39
2023-02-03T21:39:35.153Z,99748.69
2023-02-03T21:44:38.508Z,99769.60
2023-02-03T21:49:42.025Z,99792.93
2023-02-03T21:54:45.031Z,99813.18
2023-02-03T21:59:49.471Z,99823.11
2023-02-03T22:04:52.632Z,99836.66
2023-02-03T22:09:55.691Z,99855.55
2023-02-03T22:14:58.598Z,99869.92
2023-02-03T22:20:01.493Z,99888.57
2023-02-03T22:25:05.175Z,99898.66
2023-02-03T22:30:10.524Z,99914.74
2023-02-03T22:35:13.588Z,99912.79
2023-02-03T22:40:17.620Z,99932.14
2023-02-03T22:45:21.697Z,99944.75
2023-02-03T22:50:34.613Z,99951.39
2023-02-03T22:55:39.445Z,99955.64
2023-02-03T23:00:42.549Z,99958.70
2023-02-03T23:05:45.659Z,99977.52
2023-02-03T23:10:48.761Z,99994.08
2023-02-03T23:15:51.976Z,100008.44
2023-02-03T23:20:55.293Z,100021.94
2023-02-03T23:25:58.292Z,100036.63
2023-02-03T23:31:01.587Z,100053.02
2023-02-03T23:36:05.468Z,100064.98
2023-02-03T23:41:08.440Z,100073.83
2023-02-03T23:46:11.846Z,100091.75
2023-02-03T23:51:14.960Z,100105.75
2023-02-03T23:56:17.878Z,100116.69
